createdAt,value
2023-11-24T00:01:51.090Z,4.62
2023-11-24T00:04:18.012Z,4.65
2023-11-24T00:06:45.783Z,4.65
2023-11-24T00:09:12.494Z,4.62
2023-11-24T00:11:39.501Z,4.63
2023-11-24T00:14:06.596Z,4.59
2023-11-24T00:16:33.419Z,4.59
2023-11-24T00:19:00.272Z,4.62
2023-11-24T00:21:27.218Z,4.59
2023-11-24T00:23:53.994Z,4.59
2023-11-24T00:26:22.347Z,4.56
2023-11-24T00:28:49.116Z,4.60
2023-11-24T00:31:16.482Z,4.63
2023-11-24T00:33:43.506Z,4.69
2023-11-24T00:36:12.310Z,4.66
2023-11-24T00:38:39.075Z,4.66
2023-11-24T00:41:09.595Z,4.66
2023-11-24T00:43:39.905Z,4.57
2023-11-24T00:46:07.522Z,4.52
2023-11-24T00:48:35.074Z,4.55
2023-11-24T00:51:01.816Z,4.52
2023-11-24T00:53:28.619Z,4.52
2023-11-24T00:55:55.380Z,4.50
2023-11-24T00:58:22.125Z,4.50
2023-11-24T01:00:49.105Z,4.50
2023-11-24T01:03:16.773Z,4.49
2023-11-24T01:05:43.532Z,4.45
2023-11-24T01:08:11.025Z,4.45
2023-11-24T01:10:37.802Z,4.42
2023-11-24T01:13:05.092Z,4.41
2023-11-24T01:15:33.028Z,4.38
2023-11-24T01:18:00.509Z,4.34
2023-11-24T01:20:27.334Z,4.32
2023-11-24T01:22:54.012Z,4.31
2023-11-24T01:25:20.949Z,4.29
2023-11-24T01:27:48.483Z,4.26
2023-11-24T01:30:16.571Z,4.39
2023-11-24T01:32:43.347Z,4.41
2023-11-24T01:35:10.882Z,4.41
2023-11-24T01:37:37.607Z,4.38
2023-11-24T01:40:05.887Z,4.32
2023-11-24T01:42:37.358Z,4.29
2023-11-24T01:45:08.698Z,4.29
2023-11-24T01:47:35.870Z,4.22
2023-11-24T01:50:03.598Z,4.29
2023-11-24T01:52:31.309Z,4.26
2023-11-24T01:54:58.114Z,4.26
2023-11-24T01:57:24.902Z,4.28
2023-11-24T01:59:52.800Z,4.28
2023-11-24T02:02:22.076Z,4.26
2023-11-24T02:04:48.944Z,4.28
2023-11-24T02:07:15.845Z,4.26
2023-11-24T02:09:42.668Z,4.25
2023-11-24T02:12:09.447Z,4.24
2023-11-24T02:14:36.239Z,4.24
2023-11-24T02:17:03.014Z,4.25
2023-11-24T02:19:29.782Z,4.26
2023-11-24T02:21:57.406Z,4.29
2023-11-24T02:24:24.913Z,4.31
2023-11-24T02:26:51.901Z,4.29
2023-11-24T02:29:18.603Z,4.25
2023-11-24T02:31:45.501Z,4.24
2023-11-24T02:34:12.403Z,4.24
2023-11-24T02:36:39.505Z,4.22
2023-11-24T02:39:06.433Z,4.19
2023-11-24T02:41:33.437Z,4.22
2023-11-24T02:44:00.481Z,4.22
2023-11-24T02:46:27.261Z,4.18
2023-11-24T02:48:54.150Z,4.12
2023-11-24T02:51:21.061Z,4.15
2023-11-24T02:53:48.390Z,4.11
2023-11-24T02:56:15.585Z,4.14
2023-11-24T02:58:42.341Z,4.09
2023-11-24T03:01:09.070Z,4.09
2023-11-24T03:03:35.940Z,4.11
2023-11-24T03:06:06.402Z,4.12
2023-11-24T03:08:33.881Z,4.14
2023-11-24T03:11:06.254Z,4.14
2023-11-24T03:13:35.405Z,4.15
2023-11-24T03:16:04.801Z,4.17
2023-11-24T03:18:31.800Z,4.17
2023-11-24T03:20:58.628Z,4.12
2023-11-24T03:23:25.310Z,4.15
2023-11-24T03:25:52.180Z,4.14
2023-11-24T03:28:19.960Z,4.15
2023-11-24T03:30:47.811Z,4.17
2023-11-24T03:33:15.887Z,4.18
2023-11-24T03:35:42.700Z,4.21
2023-11-24T03:38:09.456Z,4.25
2023-11-24T03:40:36.198Z,4.21
2023-11-24T03:43:03.871Z,4.22
2023-11-24T03:45:33.635Z,4.25
2023-11-24T03:48:00.594Z,4.24
2023-11-24T03:50:27.562Z,4.19
2023-11-24T03:52:54.898Z,4.26
2023-11-24T03:55:21.725Z,4.25
2023-11-24T03:57:48.637Z,4.26
2023-11-24T04:00:15.532Z,4.26
2023-11-24T04:02:45.680Z,4.28
2023-11-24T04:05:12.971Z,4.26
2023-11-24T04:07:40.222Z,4.31
2023-11-24T04:10:08.547Z,4.26
2023-11-24T04:12:35.537Z,4.25
2023-11-24T04:15:02.762Z,4.24
2023-11-24T04:17:29.511Z,4.21
2023-11-24T04:19:56.218Z,4.21
2023-11-24T04:22:22.981Z,4.21
2023-11-24T04:24:49.723Z,4.19
2023-11-24T04:27:16.451Z,4.19
2023-11-24T04:29:43.115Z,4.19
2023-11-24T04:32:10.857Z,4.17
2023-11-24T04:34:37.632Z,4.14
2023-11-24T04:37:04.815Z,4.15
2023-11-24T04:39:31.802Z,4.09
2023-11-24T04:41:58.524Z,4.14
2023-11-24T04:44:25.283Z,4.08
2023-11-24T04:46:52.557Z,4.11
2023-11-24T04:49:20.035Z,4.09
2023-11-24T04:51:46.992Z,4.07
2023-11-24T04:54:13.778Z,4.05
2023-11-24T04:56:40.567Z,4.05
2023-11-24T04:59:07.307Z,4.05
2023-11-24T05:01:34.145Z,4.04
2023-11-24T05:04:01.637Z,4.05
2023-11-24T05:06:28.540Z,4.01
2023-11-24T05:08:55.314Z,3.97
2023-11-24T05:11:22.845Z,3.98
2023-11-24T05:13:50.577Z,3.98
2023-11-24T05:16:17.965Z,3.99
2023-11-24T05:18:44.976Z,3.97
2023-11-24T05:21:11.675Z,3.95
2023-11-24T05:23:38.491Z,3.91
2023-11-24T05:26:05.324Z,3.98
2023-11-24T05:28:32.069Z,4.01
2023-11-24T05:30:59.436Z,4.07
2023-11-24T05:33:26.196Z,4.12
2023-11-24T05:35:52.915Z,4.31
2023-11-24T05:38:21.094Z,4.46
2023-11-24T05:40:48.816Z,4.67
2023-11-24T05:43:15.823Z,4.85
2023-11-24T05:45:42.693Z,5.04
2023-11-24T05:48:09.449Z,5.27
2023-11-24T05:50:36.134Z,5.67
2023-11-24T05:53:02.870Z,6.16
2023-11-24T05:55:29.609Z,6.71
2023-11-24T05:57:57.868Z,7.28
2023-11-24T06:00:24.660Z,7.81
2023-11-24T06:02:51.764Z,8.33
2023-11-24T06:05:18.619Z,8.83
2023-11-24T06:07:47.162Z,9.43
2023-11-24T06:10:15.164Z,9.96
2023-11-24T06:12:41.936Z,10.47
2023-11-24T06:15:10.610Z,10.98
2023-11-24T06:17:38.062Z,11.35
2023-11-24T06:20:05.352Z,11.91
2023-11-24T06:22:32.105Z,12.39
2023-11-24T06:24:58.889Z,12.83
2023-11-24T06:27:25.639Z,13.32
2023-11-24T06:29:52.406Z,13.68
2023-11-24T06:32:19.220Z,13.85
2023-11-24T06:34:45.989Z,14.21
2023-11-24T06:37:13.334Z,14.72
2023-11-24T06:39:40.761Z,14.79
2023-11-24T06:42:07.563Z,14.71
2023-11-24T06:44:34.307Z,14.55
2023-11-24T06:47:02.291Z,14.71
2023-11-24T06:49:30.839Z,15.06
2023-11-24T06:51:58.129Z,15.64
2023-11-24T06:54:24.973Z,16.05
2023-11-24T06:56:51.769Z,16.19
2023-11-24T06:59:18.737Z,16.36
2023-11-24T07:01:45.725Z,16.02
2023-11-24T07:04:12.894Z,16.39
2023-11-24T07:06:40.638Z,16.80
2023-11-24T07:09:10.331Z,17.29
2023-11-24T07:11:38.232Z,17.46
2023-11-24T07:14:04.929Z,17.50
2023-11-24T07:16:31.908Z,17.45
2023-11-24T07:18:59.604Z,17.54
2023-11-24T07:21:26.781Z,17.86
2023-11-24T07:23:53.564Z,17.83
2023-11-24T07:26:20.739Z,18.05
2023-11-24T07:28:47.464Z,18.25
2023-11-24T07:31:18.948Z,18.65
2023-11-24T07:33:50.241Z,18.66
2023-11-24T07:36:17.960Z,19.13
2023-11-24T07:38:44.684Z,19.44
2023-11-24T07:41:11.950Z,19.17
2023-11-24T07:43:38.835Z,18.87
2023-11-24T07:46:08.538Z,19.13
2023-11-24T07:48:35.606Z,19.23
2023-11-24T07:51:02.917Z,19.20
2023-11-24T07:53:30.840Z,19.32
2023-11-24T07:55:57.467Z,19.47
2023-11-24T07:58:24.655Z,19.69
2023-11-24T08:00:51.485Z,20.21
2023-11-24T08:03:18.689Z,20.55
2023-11-24T08:05:45.593Z,20.33
2023-11-24T08:08:12.347Z,20.23
2023-11-24T08:10:39.147Z,20.33
2023-11-24T08:13:05.964Z,20.71
2023-11-24T08:15:32.794Z,21.15
2023-11-24T08:18:00.309Z,21.51
2023-11-24T08:20:27.604Z,21.57
2023-11-24T08:22:54.305Z,21.57
2023-11-24T08:25:21.166Z,21.80
2023-11-24T08:27:48.274Z,21.92
2023-11-24T08:30:15.381Z,22.06
2023-11-24T08:32:45.605Z,22.38
2023-11-24T08:35:13.276Z,22.56
2023-11-24T08:37:40.206Z,22.38
2023-11-24T08:40:12.046Z,21.88
2023-11-24T08:42:40.025Z,21.18
2023-11-24T08:45:08.116Z,20.77
2023-11-24T08:47:34.935Z,20.72
2023-11-24T08:50:01.717Z,20.85
2023-11-24T08:52:28.490Z,20.99
2023-11-24T08:54:55.461Z,20.61
2023-11-24T08:57:22.170Z,20.24
2023-11-24T08:59:48.952Z,19.73
2023-11-24T09:02:15.862Z,19.81
2023-11-24T09:04:42.852Z,19.58
2023-11-24T09:07:10.504Z,19.71
2023-11-24T09:09:38.389Z,19.65
2023-11-24T09:12:07.217Z,19.65
2023-11-24T09:14:39.736Z,19.62
2023-11-24T09:17:06.754Z,19.34
2023-11-24T09:19:35.363Z,19.25
2023-11-24T09:22:04.778Z,19.21
2023-11-24T09:24:31.605Z,19.28
2023-11-24T09:26:58.343Z,19.32
2023-11-24T09:29:27.054Z,19.44
2023-11-24T09:31:54.008Z,19.51
2023-11-24T09:34:20.973Z,19.30
2023-11-24T09:36:48.228Z,19.08
2023-11-24T09:39:18.493Z,18.76
2023-11-24T09:41:52.315Z,18.58
2023-11-24T09:44:19.116Z,18.31
2023-11-24T09:46:51.640Z,18.22
2023-11-24T09:49:19.717Z,18.44
2023-11-24T09:51:46.486Z,18.38
2023-11-24T09:54:13.408Z,18.45
2023-11-24T09:56:44.826Z,18.32
2023-11-24T09:59:11.786Z,18.18
2023-11-24T10:01:38.718Z,18.39
2023-11-24T10:04:10.340Z,18.48
2023-11-24T10:06:40.651Z,18.65
2023-11-24T10:09:07.903Z,18.85
2023-11-24T10:11:36.923Z,18.94
2023-11-24T10:14:05.769Z,19.02
2023-11-24T10:16:32.830Z,18.82
2023-11-24T10:19:01.324Z,18.65
2023-11-24T10:21:32.644Z,18.56
2023-11-24T10:24:02.217Z,18.27
2023-11-24T10:26:29.293Z,17.87
2023-11-24T10:28:56.291Z,17.43
2023-11-24T10:31:23.160Z,17.12
2023-11-24T10:33:50.652Z,16.68
2023-11-24T10:36:19.414Z,16.05
2023-11-24T10:38:46.470Z,15.81
2023-11-24T10:41:20.421Z,15.84
2023-11-24T10:43:51.592Z,15.88
2023-11-24T10:46:24.863Z,15.97
2023-11-24T10:49:01.199Z,15.98
2023-11-24T10:51:42.610Z,15.94
2023-11-24T10:54:09.444Z,15.94
2023-11-24T10:56:38.824Z,15.82
2023-11-24T10:59:07.254Z,15.61
2023-11-24T11:01:34.639Z,15.31
2023-11-24T11:04:02.174Z,14.82
2023-11-24T11:07:02.355Z,14.38
2023-11-24T11:09:41.633Z,14.23
2023-11-24T11:12:14.981Z,14.03
2023-11-24T11:14:42.058Z,13.75
2023-11-24T11:17:20.122Z,13.72
2023-11-24T11:20:10.592Z,13.54
2023-11-24T11:22:48.080Z,13.17
2023-11-24T11:25:14.989Z,13.08
2023-11-24T11:27:44.011Z,12.94
2023-11-24T11:30:23.256Z,12.87
2023-11-24T11:33:25.933Z,12.80
2023-11-24T11:36:06.913Z,12.73
2023-11-24T11:38:45.238Z,12.69
2023-11-24T11:41:12.479Z,12.66
2023-11-24T11:43:55.518Z,12.59
2023-11-24T11:46:24.155Z,12.66
2023-11-24T11:48:51.173Z,12.73
2023-11-24T11:51:18.072Z,12.64
2023-11-24T11:53:44.877Z,12.60
2023-11-24T11:56:13.345Z,12.57
2023-11-24T11:58:43.015Z,12.48
2023-11-24T12:01:09.906Z,12.39
2023-11-24T12:03:37.073Z,12.35
2023-11-24T12:06:07.121Z,12.29
2023-11-24T12:08:34.650Z,12.17
2023-11-24T12:11:02.659Z,12.10
2023-11-24T12:13:30.347Z,11.94
2023-11-24T12:16:00.699Z,11.84
2023-11-24T12:18:27.712Z,11.93
2023-11-24T12:20:54.527Z,12.04
2023-11-24T12:23:21.369Z,12.20
2023-11-24T12:25:48.098Z,12.38
2023-11-24T12:28:14.939Z,12.62
2023-11-24T12:30:45.369Z,12.92
2023-11-24T12:33:26.020Z,13.51
2023-11-24T12:35:53.329Z,14.20
2023-11-24T12:38:20.736Z,14.92
2023-11-24T12:40:48.094Z,15.68
2023-11-24T12:43:15.473Z,16.32
2023-11-24T12:45:42.486Z,16.37
2023-11-24T12:48:25.608Z,16.23
2023-11-24T12:50:57.313Z,17.01
2023-11-24T12:53:24.343Z,17.18
2023-11-24T12:55:51.035Z,16.73
2023-11-24T12:58:17.879Z,15.94
2023-11-24T13:00:44.618Z,15.51
2023-11-24T13:03:11.795Z,15.27
2023-11-24T13:05:41.392Z,15.00
2023-11-24T13:08:08.334Z,14.78
2023-11-24T13:10:37.167Z,14.37
2023-11-24T13:13:04.002Z,14.09
2023-11-24T13:15:30.706Z,13.85
2023-11-24T13:17:57.575Z,13.65
2023-11-24T13:20:30.345Z,13.47
2023-11-24T13:22:57.580Z,13.38
2023-11-24T13:25:28.179Z,13.44
2023-11-24T13:27:55.441Z,13.66
2023-11-24T13:30:26.990Z,13.80
2023-11-24T13:32:54.044Z,13.82
2023-11-24T13:35:21.657Z,13.73
2023-11-24T13:37:49.203Z,13.58
2023-11-24T13:40:21.249Z,14.18
2023-11-24T13:42:48.481Z,14.37
2023-11-24T13:45:18.152Z,14.06
2023-11-24T13:47:45.973Z,13.70
2023-11-24T13:50:15.262Z,13.48
2023-11-24T13:52:57.001Z,13.22
2023-11-24T13:55:24.420Z,12.93
2023-11-24T13:57:55.565Z,12.77
2023-11-24T14:00:23.061Z,12.55
2023-11-24T14:02:50.115Z,12.41
2023-11-24T14:05:16.909Z,12.22
2023-11-24T14:07:46.133Z,12.07
2023-11-24T14:10:18.189Z,11.90
2023-11-24T14:12:47.505Z,11.77
2023-11-24T14:15:15.338Z,11.71
2023-11-24T14:17:42.555Z,11.70
2023-11-24T14:20:10.431Z,11.67
2023-11-24T14:22:40.141Z,11.60
2023-11-24T14:25:09.112Z,11.56
2023-11-24T14:27:35.919Z,11.47
2023-11-24T14:30:05.291Z,11.42
2023-11-24T14:32:33.866Z,11.32
2023-11-24T14:35:01.843Z,11.25
2023-11-24T14:37:28.841Z,11.19
2023-11-24T14:39:55.748Z,11.16
2023-11-24T14:42:22.597Z,11.11
2023-11-24T14:44:50.065Z,11.08
2023-11-24T14:47:16.816Z,11.00
2023-11-24T14:49:43.982Z,10.91
2023-11-24T14:52:10.938Z,10.82
2023-11-24T14:54:38.872Z,10.75
2023-11-24T14:57:06.596Z,10.59
2023-11-24T14:59:33.324Z,10.47
2023-11-24T15:02:02.955Z,10.34
2023-11-24T15:04:32.465Z,10.30
2023-11-24T15:07:01.965Z,10.26
2023-11-24T15:09:28.993Z,10.22
2023-11-24T15:11:55.758Z,10.17
2023-11-24T15:14:33.769Z,10.17
2023-11-24T15:17:06.224Z,10.19
2023-11-24T15:19:37.499Z,10.17
2023-11-24T15:22:07.720Z,10.15
2023-11-24T15:24:34.981Z,10.15
2023-11-24T15:27:02.502Z,10.15
2023-11-24T15:29:29.278Z,10.15
2023-11-24T15:31:56.094Z,10.12
2023-11-24T15:34:26.087Z,10.10
2023-11-24T15:36:52.992Z,10.10
2023-11-24T15:39:41.659Z,10.08
2023-11-24T15:42:08.912Z,10.06
2023-11-24T15:44:37.609Z,10.06
2023-11-24T15:47:08.927Z,10.05
2023-11-24T15:49:37.271Z,10.03
2023-11-24T15:52:08.769Z,10.02
2023-11-24T15:54:36.172Z,10.03
2023-11-24T15:57:04.361Z,10.02
2023-11-24T15:59:35.206Z,10.02
2023-11-24T16:02:04.269Z,10.03
2023-11-24T16:04:33.841Z,10.02
2023-11-24T16:07:04.430Z,10.01
2023-11-24T16:09:32.164Z,10.01
2023-11-24T16:12:05.452Z,10.01
2023-11-24T16:14:33.949Z,9.99
2023-11-24T16:17:05.027Z,10.01
2023-11-24T16:19:35.224Z,10.01
2023-11-24T16:22:02.165Z,10.01
2023-11-24T16:24:29.010Z,10.02
2023-11-24T16:26:55.955Z,10.02
2023-11-24T16:29:22.781Z,10.01
2023-11-24T16:31:51.090Z,10.05
2023-11-24T16:34:19.828Z,10.05
2023-11-24T16:36:46.575Z,10.01
2023-11-24T16:39:13.398Z,9.99
2023-11-24T16:41:43.460Z,10.01
2023-11-24T16:44:10.321Z,9.99
2023-11-24T16:46:37.801Z,9.99
2023-11-24T16:49:08.425Z,10.02
2023-11-24T16:51:35.252Z,10.05
2023-11-24T16:54:03.509Z,10.08
2023-11-24T16:56:30.362Z,10.08
2023-11-24T16:58:58.400Z,10.10
2023-11-24T17:01:26.004Z,10.13
2023-11-24T17:03:54.475Z,10.15
2023-11-24T17:06:21.395Z,10.19
2023-11-24T17:08:48.410Z,10.17
2023-11-24T17:11:15.494Z,10.17
2023-11-24T17:13:42.484Z,10.20
2023-11-24T17:16:15.970Z,10.20
2023-11-24T17:18:43.188Z,10.22
2023-11-24T17:21:10.038Z,10.23
2023-11-24T17:23:41.935Z,10.25
2023-11-24T17:26:11.367Z,10.32
2023-11-24T17:28:38.625Z,10.26
2023-11-24T17:31:09.618Z,10.26
2023-11-24T17:33:41.386Z,10.23
2023-11-24T17:36:09.591Z,10.25
2023-11-24T17:38:36.427Z,10.29
2023-11-24T17:41:03.211Z,10.32
2023-11-24T17:43:30.843Z,10.36
2023-11-24T17:45:57.903Z,10.37
2023-11-24T17:48:24.943Z,10.39
2023-11-24T17:50:52.284Z,10.42
2023-11-24T17:53:19.773Z,10.42
2023-11-24T17:55:46.599Z,10.33
2023-11-24T17:58:13.488Z,10.32
2023-11-24T18:00:41.460Z,10.32
2023-11-24T18:03:08.980Z,10.33
2023-11-24T18:05:36.971Z,10.37
2023-11-24T18:08:04.693Z,10.42
2023-11-24T18:10:31.881Z,10.44
2023-11-24T18:12:59.391Z,10.46
2023-11-24T18:15:29.053Z,10.49
2023-11-24T18:17:55.863Z,10.52
2023-11-24T18:20:22.922Z,10.56
2023-11-24T18:22:49.846Z,10.57
2023-11-24T18:25:16.826Z,10.53
2023-11-24T18:27:44.194Z,10.56
2023-11-24T18:30:11.825Z,10.57
2023-11-24T18:32:39.398Z,10.54
2023-11-24T18:35:09.318Z,10.59
2023-11-24T18:37:36.118Z,10.50
2023-11-24T18:40:04.269Z,10.52
2023-11-24T18:42:31.361Z,10.52
2023-11-24T18:44:58.281Z,10.54
2023-11-24T18:47:27.449Z,10.57
2023-11-24T18:49:54.811Z,10.56
2023-11-24T18:52:23.101Z,10.60
2023-11-24T18:54:49.902Z,10.61
2023-11-24T18:57:16.635Z,10.67
2023-11-24T18:59:43.436Z,10.65
2023-11-24T19:02:10.453Z,10.67
2023-11-24T19:04:37.538Z,10.71
2023-11-24T19:07:04.647Z,10.75
2023-11-24T19:09:31.471Z,10.78
2023-11-24T19:11:58.433Z,10.82
2023-11-24T19:14:25.350Z,10.81
2023-11-24T19:16:52.844Z,10.80
2023-11-24T19:19:22.324Z,10.75
2023-11-24T19:21:49.142Z,10.77
2023-11-24T19:24:15.952Z,10.71
2023-11-24T19:26:42.770Z,10.72
2023-11-24T19:29:11.880Z,10.72
2023-11-24T19:31:40.185Z,10.70
2023-11-24T19:34:09.196Z,10.70
2023-11-24T19:36:37.140Z,10.74
2023-11-24T19:39:05.963Z,10.77
2023-11-24T19:41:32.753Z,10.80
2023-11-24T19:43:59.526Z,10.80
2023-11-24T19:46:26.464Z,10.74
2023-11-24T19:48:53.554Z,10.74
2023-11-24T19:51:20.757Z,10.71
2023-11-24T19:53:50.088Z,10.72
2023-11-24T19:56:18.577Z,10.77
2023-11-24T19:58:45.432Z,10.77
2023-11-24T20:01:12.414Z,10.77
2023-11-24T20:03:40.125Z,10.70
2023-11-24T20:06:08.002Z,10.68
2023-11-24T20:08:35.068Z,10.70
2023-11-24T20:11:02.114Z,10.72
2023-11-24T20:13:29.714Z,10.72
2023-11-24T20:15:58.212Z,10.72
2023-11-24T20:18:25.278Z,10.74
2023-11-24T20:20:53.069Z,10.74
2023-11-24T20:23:20.643Z,10.72
2023-11-24T20:25:47.703Z,10.68
2023-11-24T20:28:14.650Z,10.65
2023-11-24T20:30:41.535Z,10.67
2023-11-24T20:33:08.396Z,10.60
2023-11-24T20:35:35.206Z,10.54
2023-11-24T20:38:04.690Z,10.50
2023-11-24T20:40:31.548Z,10.49
2023-11-24T20:42:58.557Z,10.47
2023-11-24T20:45:25.430Z,10.40
2023-11-24T20:47:52.953Z,10.43
2023-11-24T20:50:20.064Z,10.43
2023-11-24T20:52:47.073Z,10.43
2023-11-24T20:55:14.877Z,10.47
2023-11-24T20:57:41.855Z,10.46
2023-11-24T21:00:12.519Z,10.47
2023-11-24T21:02:40.352Z,10.49
2023-11-24T21:05:09.129Z,10.50
2023-11-24T21:07:36.154Z,10.53
2023-11-24T21:10:05.038Z,10.56
2023-11-24T21:12:32.390Z,10.57
2023-11-24T21:15:00.534Z,10.59
2023-11-24T21:17:27.990Z,10.61
2023-11-24T21:19:54.843Z,10.64
2023-11-24T21:22:21.797Z,10.59
2023-11-24T21:24:51.467Z,10.53
2023-11-24T21:27:19.096Z,10.54
2023-11-24T21:29:45.898Z,10.53
2023-11-24T21:32:12.780Z,10.50
2023-11-24T21:34:39.634Z,10.49
2023-11-24T21:37:09.557Z,10.47
2023-11-24T21:39:39.148Z,10.44
2023-11-24T21:42:05.923Z,10.47
2023-11-24T21:44:32.725Z,10.49
2023-11-24T21:47:00.021Z,10.44
2023-11-24T21:49:27.224Z,10.46
2023-11-24T21:51:54.379Z,10.46
2023-11-24T21:54:21.142Z,10.50
2023-11-24T21:56:47.870Z,10.49
2023-11-24T21:59:14.668Z,10.54
2023-11-24T22:01:41.664Z,10.59
2023-11-24T22:04:09.433Z,10.60
2023-11-24T22:06:37.054Z,10.60
2023-11-24T22:09:06.573Z,10.57
2023-11-24T22:11:33.933Z,10.61
2023-11-24T22:14:01.072Z,10.60
2023-11-24T22:16:27.986Z,10.60
2023-11-24T22:18:54.819Z,10.61
2023-11-24T22:21:22.548Z,10.60
2023-11-24T22:23:49.703Z,10.63
2023-11-24T22:26:21.077Z,10.59
2023-11-24T22:28:49.909Z,10.56
2023-11-24T22:31:20.348Z,10.46
2023-11-24T22:33:47.502Z,10.44
2023-11-24T22:36:20.968Z,10.44
2023-11-24T22:38:48.323Z,10.39
2023-11-24T22:41:26.041Z,10.37
2023-11-24T22:43:54.024Z,10.39
2023-11-24T22:46:24.790Z,10.37
2023-11-24T22:48:52.065Z,10.37
2023-11-24T22:51:22.754Z,10.37
2023-11-24T22:53:50.104Z,10.33
2023-11-24T22:56:24.881Z,10.34
2023-11-24T22:58:56.395Z,10.33
2023-11-24T23:01:24.332Z,10.33
2023-11-24T23:03:54.840Z,10.32
2023-11-24T23:06:23.935Z,10.34
2023-11-24T23:08:51.515Z,10.33
2023-11-24T23:11:20.419Z,10.36
2023-11-24T23:13:48.120Z,10.37
2023-11-24T23:16:15.223Z,10.36
2023-11-24T23:18:42.576Z,10.32
2023-11-24T23:21:13.236Z,10.28
2023-11-24T23:23:40.908Z,10.30
2023-11-24T23:26:08.018Z,10.28
2023-11-24T23:28:35.372Z,10.22
2023-11-24T23:31:12.385Z,10.19
2023-11-24T23:33:41.777Z,10.16
2023-11-24T23:36:14.452Z,10.17
2023-11-24T23:38:41.793Z,10.15
2023-11-24T23:41:08.705Z,10.05
2023-11-24T23:43:38.663Z,9.98
2023-11-24T23:46:06.880Z,9.96
2023-11-24T23:48:34.067Z,9.95
2023-11-24T23:51:01.291Z,9.92
2023-11-24T23:53:28.691Z,9.95
2023-11-24T23:55:56.935Z,9.92
2023-11-24T23:58:25.530Z,9.99
